Terminal Aerodrome Forecast
Issued by NWS

Home | Current Version | Previous Version | Graphics & Text | Print | Product List | Glossary On
Versions: 1 2 3 4 5 6 7 8 9 10 11 12 13 14 15 16 17
578
FTUS43 KMPX 301124
TAFAXN
TAF
KAXN 301124Z 3012/0112 34005KT 5SM -SN BR OVC003
     FM301800 34009KT 3SM -RASN BR OVC006
     FM010000 34009KT 5SM BR OVC003=

USA.gov is the U.S. government's official web portal to all federal, state and local government web resources and services.